Time;durP1;ratioP1;P1;durP2;ratioP2;P2;SDS_P1;SDS_P2;PMS_P1;PMS_P2;Temp;Humidity;BMP_temperature;BMP_pressure;BME280_temperature;BME280_humidity;BME280_pressure;Samples;Min_cycle;Max_cycle;Signal;HPM_P1;HPM_P2
2020/04/13 00:00:41;;;;;;;5.4;3.6;;;;;;;13.57;59.52051;955.7729;;;;
2020/04/13 00:03:06;;;;;;;5.4;3.3;;;;;;;13.52;59.74512;955.758;;;;
2020/04/13 00:05:31;;;;;;;4.1;3.6;;;;;;;13.38;59.99219;955.7587;;;;
2020/04/13 00:07:56;;;;;;;4.3;3.5;;;;;;;13.39;60.10938;955.731;;;;
2020/04/13 00:10:21;;;;;;;5.9;3.7;;;;;;;13.3;60.29492;955.7119;;;;
2020/04/13 00:12:47;;;;;;;3.7;3.4;;;;;;;13.31;60.5752;955.6867;;;;
2020/04/13 00:15:12;;;;;;;4.4;3.6;;;;;;;13.23;60.60938;955.6656;;;;
2020/04/13 00:17:39;;;;;;;4.2;3.5;;;;;;;13.16;60.83203;955.6884;;;;
2020/04/13 00:20:04;;;;;;;4.6;3.4;;;;;;;13.18;60.77539;955.6622;;;;
2020/04/13 00:22:30;;;;;;;4.9;3.6;;;;;;;13.19;60.65039;955.6228;;;;
2020/04/13 00:24:55;;;;;;;5.1;3.6;;;;;;;13.25;60.90137;955.6156;;;;
2020/04/13 00:27:22;;;;;;;4.8;3.3;;;;;;;13.25;60.3457;955.6069;;;;
2020/04/13 00:29:47;;;;;;;3.7;3.3;;;;;;;13.22;61.30273;955.649;;;;
2020/04/13 00:32:12;;;;;;;7.6;3.6;;;;;;;13.23;60.77246;955.6116;;;;
2020/04/13 00:34:37;;;;;;;4.1;3.5;;;;;;;13.2;60.88184;955.61;;;;
2020/04/13 00:37:04;;;;;;;3.8;3.4;;;;;;;13.21;61.49805;955.6344;;;;
2020/04/13 00:39:29;;;;;;;4.4;3.6;;;;;;;13.1;61.28516;955.5506;;;;
2020/04/13 00:41:55;;;;;;;4.3;3.7;;;;;;;13.13;61.25488;955.5875;;;;
2020/04/13 00:44:20;;;;;;;4.1;3.7;;;;;;;13.1;61.24023;955.5263;;;;
2020/04/13 00:46:47;;;;;;;4.4;3.9;;;;;;;13.13;61.22168;955.5452;;;;
2020/04/13 00:49:12;;;;;;;3.9;3.5;;;;;;;13.21;61.78809;955.5616;;;;
2020/04/13 00:51:38;;;;;;;4.8;3.9;;;;;;;13.17;62.96289;955.5698;;;;
2020/04/13 00:54:03;;;;;;;3.6;3.3;;;;;;;13.14;62.44922;955.551;;;;
2020/04/13 00:56:29;;;;;;;4.1;3.7;;;;;;;13.06;62.65723;955.5351;;;;
2020/04/13 00:58:54;;;;;;;3.8;3.3;;;;;;;13.21;62.37988;955.5411;;;;
2020/04/13 01:03:47;;;;;;;4.2;3.8;;;;;;;13.03;63.5791;955.5726;;;;
2020/04/13 01:06:12;;;;;;;4.4;3.7;;;;;;;13.04;62.45801;955.5389;;;;
2020/04/13 01:08:38;;;;;;;3.9;3.5;;;;;;;13.28;61.23047;955.5098;;;;
2020/04/13 01:11:04;;;;;;;4.6;3.9;;;;;;;13.26;61.45996;955.5073;;;;
2020/04/13 01:13:29;;;;;;;5.3;3.7;;;;;;;13.08;63.29785;955.4902;;;;
2020/04/13 01:15:55;;;;;;;4;3.6;;;;;;;12.96;64.54102;955.4531;;;;
2020/04/13 01:18:20;;;;;;;4.4;4;;;;;;;12.86;65.4873;955.5106;;;;
2020/04/13 01:20:46;;;;;;;4.4;3.9;;;;;;;12.85;65.24219;955.5245;;;;
2020/04/13 01:23:11;;;;;;;4.4;3.6;;;;;;;12.89;65.13184;955.5339;;;;
2020/04/13 01:25:36;;;;;;;4.8;3.6;;;;;;;12.9;64.61328;955.497;;;;
2020/04/13 01:28:02;;;;;;;3.9;3.3;;;;;;;12.88;64.76074;955.5083;;;;
2020/04/13 01:30:28;;;;;;;5.5;3.6;;;;;;;12.97;64.49512;955.5364;;;;
2020/04/13 01:32:54;;;;;;;4.4;3.9;;;;;;;12.94;63.53027;955.52;;;;
2020/04/13 01:35:19;;;;;;;4.2;3.8;;;;;;;12.8;65.47754;955.469;;;;
2020/04/13 01:37:45;;;;;;;4.4;3.6;;;;;;;12.88;64.08984;955.4707;;;;
2020/04/13 01:40:10;;;;;;;4.3;3.8;;;;;;;12.78;63.2998;955.5015;;;;
2020/04/13 01:42:36;;;;;;;4.3;3.9;;;;;;;12.7;63.4043;955.5494;;;;
2020/04/13 01:45:01;;;;;;;4.9;3.8;;;;;;;12.7;63.49609;955.5313;;;;
2020/04/13 01:47:28;;;;;;;5.9;3.9;;;;;;;12.65;63.49023;955.537;;;;
2020/04/13 01:49:53;;;;;;;4.5;3.9;;;;;;;12.64;63.58105;955.4624;;;;
2020/04/13 01:52:18;;;;;;;5.8;4;;;;;;;12.61;63.8418;955.4558;;;;
2020/04/13 01:54:43;;;;;;;4.8;3.8;;;;;;;12.59;64.41602;955.4981;;;;
2020/04/13 01:57:10;;;;;;;4;3.6;;;;;;;12.83;63.00586;955.459;;;;
2020/04/13 01:59:35;;;;;;;4;3.6;;;;;;;12.93;62.67383;955.4178;;;;
2020/04/13 02:02:01;;;;;;;4.1;3.7;;;;;;;12.85;62.94043;955.4501;;;;
2020/04/13 02:04:26;;;;;;;4.3;3.9;;;;;;;12.7;63.05664;955.4414;;;;
2020/04/13 02:06:59;;;;;;;4;3.6;;;;;;;12.74;62.91309;955.4766;;;;
2020/04/13 02:09:18;;;;;;;5.7;3.8;;;;;;;12.82;62.20605;955.4894;;;;
2020/04/13 02:11:45;;;;;;;3.8;3.5;;;;;;;12.79;62.15625;955.472;;;;
2020/04/13 02:14:10;;;;;;;5.6;3.6;;;;;;;12.78;63.08008;955.4369;;;;
2020/04/13 02:16:37;;;;;;;4.3;3.9;;;;;;;12.72;64.16992;955.3975;;;;
2020/04/13 02:19:01;;;;;;;5.2;3.7;;;;;;;12.74;62.42578;955.4521;;;;
2020/04/13 02:21:26;;;;;;;4.6;3.7;;;;;;;12.72;62.34375;955.4448;;;;
2020/04/13 02:23:52;;;;;;;4.1;3.7;;;;;;;12.73;62.8877;955.4146;;;;
2020/04/13 02:26:17;;;;;;;4.5;4;;;;;;;12.66;62.73926;955.4642;;;;
2020/04/13 02:28:43;;;;;;;4.9;4;;;;;;;12.55;63.16211;955.5691;;;;
2020/04/13 02:31:23;;;;;;;4.5;4;;;;;;;12.55;63.27734;955.5847;;;;
2020/04/13 02:38:28;;;;;;;5.5;4;;;;;;;12.5;63.32715;955.5941;;;;
2020/04/13 02:40:48;;;;;;;4.2;3.8;;;;;;;12.51;63.3291;955.5936;;;;
2020/04/13 02:43:13;;;;;;;5.1;3.8;;;;;;;12.39;63.79883;955.4899;;;;
2020/04/13 02:45:38;;;;;;;5.1;3.7;;;;;;;12.37;63.89844;955.52;;;;
2020/04/13 02:48:03;;;;;;;4.7;3.9;;;;;;;12.34;63.88281;955.5115;;;;
2020/04/13 02:50:29;;;;;;;4.6;3.8;;;;;;;12.3;64.08594;955.4764;;;;
2020/04/13 02:52:55;;;;;;;4.6;3.8;;;;;;;12.33;64.10156;955.4373;;;;
2020/04/13 02:55:20;;;;;;;5.3;4;;;;;;;12.31;64.13184;955.3947;;;;
2020/04/13 02:57:46;;;;;;;4.2;3.8;;;;;;;12.34;64.25195;955.4088;;;;
2020/04/13 03:00:12;;;;;;;4.6;4.2;;;;;;;12.26;65.96094;955.3714;;;;
2020/04/13 03:02:38;;;;;;;4.6;3.9;;;;;;;12.24;65.15137;955.4261;;;;
2020/04/13 03:05:03;;;;;;;4.1;3.7;;;;;;;12.28;65.01758;955.4443;;;;
2020/04/13 03:07:29;;;;;;;4.8;3.8;;;;;;;12.3;65.54199;955.3881;;;;
2020/04/13 03:09:54;;;;;;;3.9;3.5;;;;;;;12.37;64.23242;955.4105;;;;
2020/04/13 03:12:20;;;;;;;4.1;3.7;;;;;;;12.3;66.02637;955.3522;;;;
2020/04/13 03:17:48;;;;;;;4.2;3.7;;;;;;;12.07;66.58105;955.3318;;;;
2020/04/13 03:19:41;;;;;;;4.1;3.8;;;;;;;12.17;66.68848;955.3488;;;;
2020/04/13 03:22:07;;;;;;;4.4;4;;;;;;;12.03;67.63672;955.3114;;;;
2020/04/13 03:24:25;;;;;;;4.2;3.7;;;;;;;12.09;67.49609;955.4073;;;;
2020/04/13 03:26:50;;;;;;;5.3;3.8;;;;;;;11.93;68.95996;955.4355;;;;
2020/04/13 03:29:15;;;;;;;4.5;4.1;;;;;;;11.89;68.80273;955.4214;;;;
2020/04/13 03:31:40;;;;;;;4.5;4.1;;;;;;;11.81;69.1377;955.3951;;;;
2020/04/13 03:34:06;;;;;;;4.7;4;;;;;;;11.76;68.80664;955.4244;;;;
2020/04/13 03:36:31;;;;;;;4.4;3.8;;;;;;;11.73;69.89648;955.4094;;;;
2020/04/13 03:38:56;;;;;;;5.2;4.4;;;;;;;11.72;70.43945;955.4132;;;;
2020/04/13 03:41:21;;;;;;;5;4.5;;;;;;;11.58;70.58887;955.3608;;;;
2020/04/13 03:43:46;;;;;;;5.9;4.9;;;;;;;11.67;71.12305;955.3502;;;;
2020/04/13 03:46:11;;;;;;;6;5.2;;;;;;;11.52;70.76465;955.3318;;;;
2020/04/13 03:48:36;;;;;;;6;5.3;;;;;;;11.53;70.61523;955.3514;;;;
2020/04/13 03:51:03;;;;;;;6.1;5;;;;;;;11.38;71.84863;955.3745;;;;
2020/04/13 03:54:52;;;;;;;6;5.4;;;;;;;11.47;72.3457;955.3647;;;;
2020/04/13 03:57:17;;;;;;;5.7;5.1;;;;;;;11.33;72.7041;955.3324;;;;
2020/04/13 03:59:42;;;;;;;5.3;4.8;;;;;;;11.39;72.44922;955.2971;;;;
2020/04/13 04:02:26;;;;;;;7.1;5.4;;;;;;;11.2;73.44238;955.3468;;;;
2020/04/13 04:04:51;;;;;;;6.7;5.7;;;;;;;11.15;73.83984;955.3275;;;;
2020/04/13 04:07:16;;;;;;;6.3;5.3;;;;;;;11.19;73.37207;955.3198;;;;
2020/04/13 04:09:41;;;;;;;7.3;5.7;;;;;;;11.19;73.17773;955.4031;;;;
2020/04/13 04:12:07;;;;;;;6.5;5.2;;;;;;;11.24;73.54199;955.3773;;;;
2020/04/13 04:14:32;;;;;;;6.9;5.2;;;;;;;11.29;72.87109;955.3525;;;;
2020/04/13 04:16:57;;;;;;;6.2;5.3;;;;;;;11.31;73.57715;955.3145;;;;
2020/04/13 04:19:22;;;;;;;6.3;5.4;;;;;;;11.28;73.29492;955.3998;;;;
2020/04/13 04:21:47;;;;;;;6;5.4;;;;;;;11.18;74.11914;955.3644;;;;
2020/04/13 04:24:12;;;;;;;7;5.2;;;;;;;11.21;73.22656;955.3614;;;;
2020/04/13 04:26:39;;;;;;;5.8;5.2;;;;;;;11.33;72.58887;955.3837;;;;
2020/04/13 04:29:02;;;;;;;6.3;5.7;;;;;;;11.28;73.41113;955.3607;;;;
2020/04/13 04:31:27;;;;;;;6.4;5.8;;;;;;;11.17;73.4375;955.3596;;;;
2020/04/13 04:33:52;;;;;;;6.5;5.7;;;;;;;11.07;74.21582;955.3473;;;;
2020/04/13 04:36:19;;;;;;;6.7;6;;;;;;;11.11;74.15332;955.3223;;;;
2020/04/13 04:38:44;;;;;;;7.7;5.7;;;;;;;11.12;74.26953;955.3231;;;;
2020/04/13 04:41:10;;;;;;;6.4;5.7;;;;;;;11.21;74.50586;955.293;;;;
2020/04/13 04:43:35;;;;;;;6.4;5.5;;;;;;;11.19;74.8125;955.3215;;;;
2020/04/13 04:46:02;;;;;;;6.5;5.7;;;;;;;11.1;74.67188;955.3361;;;;
2020/04/13 04:48:27;;;;;;;6;5.4;;;;;;;11.18;74.59375;955.4036;;;;
2020/04/13 04:50:53;;;;;;;6.3;5.7;;;;;;;11.2;74.17969;955.3582;;;;
2020/04/13 04:53:18;;;;;;;6.5;5.8;;;;;;;11.21;74.34473;955.3843;;;;
2020/04/13 04:55:44;;;;;;;9.3;6;;;;;;;11.16;74.62305;955.3767;;;;
2020/04/13 04:58:09;;;;;;;6.5;5.8;;;;;;;11.26;74.9873;955.3947;;;;
2020/04/13 05:00:36;;;;;;;6.8;5.6;;;;;;;11.2;74.65234;955.3655;;;;
2020/04/13 05:03:01;;;;;;;8.1;6;;;;;;;11.04;75.38477;955.3926;;;;
2020/04/13 05:05:26;;;;;;;6.2;5.6;;;;;;;11.25;74.63867;955.3931;;;;
2020/04/13 05:07:52;;;;;;;8;5.9;;;;;;;11.18;74.36328;955.424;;;;
2020/04/13 05:10:17;;;;;;;5.9;5.3;;;;;;;11.12;74.5;955.39;;;;
2020/04/13 05:12:42;;;;;;;7.1;6;;;;;;;11.07;75.13965;955.375;;;;
2020/04/13 05:15:08;;;;;;;6.2;5.4;;;;;;;11.09;75.60156;955.4116;;;;
2020/04/13 05:17:33;;;;;;;8.8;6.4;;;;;;;11.13;76.0459;955.4063;;;;
2020/04/13 05:19:58;;;;;;;6.9;5.7;;;;;;;11.1;75.32813;955.4316;;;;
2020/04/13 05:22:23;;;;;;;7.5;6.2;;;;;;;11.14;75.56543;955.4628;;;;
2020/04/13 05:24:48;;;;;;;6.5;5.9;;;;;;;11.14;75.11621;955.4278;;;;
2020/04/13 05:27:13;;;;;;;7.8;6;;;;;;;11.1;74.72754;955.4462;;;;
2020/04/13 05:29:51;;;;;;;6.4;5.8;;;;;;;11.04;75.75586;955.4383;;;;
2020/04/13 05:32:03;;;;;;;6.9;6.2;;;;;;;11.09;74.87598;955.4247;;;;
2020/04/13 05:34:30;;;;;;;6.7;6;;;;;;;11.13;74.99707;955.447;;;;
2020/04/13 05:36:55;;;;;;;7.2;6;;;;;;;11.1;75.23633;955.4055;;;;
2020/04/13 05:39:21;;;;;;;7.5;6.3;;;;;;;11.16;74.99219;955.4;;;;
2020/04/13 05:41:46;;;;;;;7.1;6.1;;;;;;;11.22;75.19922;955.4858;;;;
2020/04/13 05:44:12;;;;;;;7.1;6.4;;;;;;;11.28;74.98926;955.5402;;;;
2020/04/13 05:46:37;;;;;;;6.9;6.2;;;;;;;11.29;74.09277;955.5133;;;;
2020/04/13 05:49:04;;;;;;;7.1;6.4;;;;;;;11.36;73.19336;955.5334;;;;
2020/04/13 05:51:29;;;;;;;7.7;6.3;;;;;;;11.43;73.5625;955.5137;;;;
2020/04/13 05:53:54;;;;;;;9;6.7;;;;;;;11.45;74.43066;955.5611;;;;
2020/04/13 05:56:19;;;;;;;7.3;6.6;;;;;;;11.5;73.75977;955.5869;;;;
2020/04/13 05:58:44;;;;;;;7.6;6.8;;;;;;;11.63;74.14941;955.6426;;;;
2020/04/13 06:01:09;;;;;;;6;5.4;;;;;;;11.78;68.93652;955.6708;;;;
2020/04/13 06:03:34;;;;;;;7.5;6.1;;;;;;;11.97;70.91699;955.7447;;;;
2020/04/13 06:06:11;;;;;;;7.3;5.2;;;;;;;12.12;68.73633;955.7506;;;;
2020/04/13 06:08:25;;;;;;;5;4.5;;;;;;;12.25;65.49902;955.8329;;;;
2020/04/13 06:10:51;;;;;;;5.4;4.9;;;;;;;12.35;64.88965;955.8164;;;;
2020/04/13 06:13:15;;;;;;;6.2;4.9;;;;;;;12.44;66.20996;955.8711;;;;
2020/04/13 06:15:41;;;;;;;8.2;7.4;;;;;;;12.62;65.26563;955.9069;;;;
2020/04/13 06:18:06;;;;;;;8.9;5.8;;;;;;;12.51;66.64844;955.9017;;;;
2020/04/13 06:20:33;;;;;;;6.5;5.3;;;;;;;12.56;67.54688;955.9396;;;;
2020/04/13 06:22:58;;;;;;;7.2;5.5;;;;;;;12.45;69.18262;955.9774;;;;
2020/04/13 06:25:25;;;;;;;7.6;6.6;;;;;;;12.58;66.23145;956.0098;;;;
2020/04/13 06:27:50;;;;;;;6.9;5.8;;;;;;;12.76;65.35547;956.0712;;;;
2020/04/13 06:30:16;;;;;;;8.6;6.7;;;;;;;12.81;66.25391;956.0887;;;;
2020/04/13 06:32:41;;;;;;;9.3;7.2;;;;;;;12.85;66.9082;956.0814;;;;
2020/04/13 06:35:08;;;;;;;7.6;6.4;;;;;;;12.86;66.26074;956.1289;;;;
2020/04/13 06:37:36;;;;;;;6.7;5.3;;;;;;;12.99;64.09375;956.0994;;;;
2020/04/13 06:39:59;;;;;;;7.1;5.2;;;;;;;13.16;62.00098;956.0931;;;;
2020/04/13 06:42:24;;;;;;;6.2;4.7;;;;;;;13.38;60.8623;956.0894;;;;
2020/04/13 06:44:51;;;;;;;6.2;4.9;;;;;;;13.51;60.25391;956.0938;;;;
2020/04/13 06:47:16;;;;;;;7.8;5.9;;;;;;;13.65;60.12402;956.1365;;;;
2020/04/13 06:49:42;;;;;;;9.5;6.3;;;;;;;13.83;58.2334;956.1131;;;;
2020/04/13 06:52:07;;;;;;;6.5;4.7;;;;;;;14.07;57.88379;956.1245;;;;
2020/04/13 06:54:32;;;;;;;7.2;4.9;;;;;;;14.01;57.93262;956.1714;;;;
2020/04/13 06:56:57;;;;;;;7.1;4.7;;;;;;;14.07;57.75586;956.2065;;;;
2020/04/13 06:59:22;;;;;;;7.2;5;;;;;;;14.03;58.64355;956.1944;;;;
2020/04/13 07:01:47;;;;;;;6.1;4.8;;;;;;;14;59.13867;956.2344;;;;
2020/04/13 07:04:13;;;;;;;6.9;4.5;;;;;;;14.08;58.69727;956.2253;;;;
2020/04/13 07:06:38;;;;;;;9.2;4.6;;;;;;;14.24;57.91699;956.2661;;;;
2020/04/13 07:09:03;;;;;;;6.2;4.9;;;;;;;14.49;57.52148;956.1816;;;;
2020/04/13 07:11:28;;;;;;;6.7;5;;;;;;;14.38;57.57715;956.1922;;;;
2020/04/13 07:13:53;;;;;;;7.2;5.3;;;;;;;14.32;58.60059;956.1284;;;;
2020/04/13 07:16:18;;;;;;;5.6;4.7;;;;;;;14.3;58.87695;956.1161;;;;
2020/04/13 07:18:44;;;;;;;5.5;5;;;;;;;14.31;59.55273;956.0875;;;;
2020/04/13 07:21:09;;;;;;;6.6;4.8;;;;;;;14.34;57.94238;956.0842;;;;
2020/04/13 07:23:36;;;;;;;6.4;4.8;;;;;;;14.48;57.46094;956.1211;;;;
2020/04/13 07:26:01;;;;;;;5.3;4.8;;;;;;;14.58;57.27637;956.1038;;;;
2020/04/13 07:28:27;;;;;;;5.2;4.7;;;;;;;14.71;56.31836;956.0623;;;;
2020/04/13 07:30:52;;;;;;;4.8;4.4;;;;;;;14.76;55.56836;956.1066;;;;
2020/04/13 07:33:19;;;;;;;4.8;4.1;;;;;;;15;55.19336;956.1189;;;;
2020/04/13 07:35:44;;;;;;;7;4.5;;;;;;;15.3;54.62598;956.0939;;;;
2020/04/13 07:38:10;;;;;;;5;4.4;;;;;;;15.52;53.4541;956.1008;;;;
2020/04/13 07:40:36;;;;;;;4.9;4.2;;;;;;;15.72;53.11816;956.1138;;;;
2020/04/13 07:43:01;;;;;;;7.2;3.8;;;;;;;15.94;51.93262;956.0974;;;;
2020/04/13 07:45:26;;;;;;;6.1;4.1;;;;;;;16.03;50.49902;956.0811;;;;
2020/04/13 07:50:16;;;;;;;5;4;;;;;;;16.03;48.97168;956.0787;;;;
2020/04/13 07:52:44;;;;;;;4.4;3.9;;;;;;;16.13;48.48242;956.1067;;;;
2020/04/13 07:55:07;;;;;;;4.6;3.8;;;;;;;16.08;48.46582;956.0997;;;;
2020/04/13 07:57:32;;;;;;;5.8;4.2;;;;;;;15.96;49.12598;956.1203;;;;
2020/04/13 07:59:57;;;;;;;6.6;4.2;;;;;;;15.99;49.04883;956.1243;;;;
2020/04/13 08:02:22;;;;;;;4.2;3.7;;;;;;;16;49.36523;956.1141;;;;
2020/04/13 08:04:47;;;;;;;5.4;3.8;;;;;;;15.97;49.31543;956.1122;;;;
2020/04/13 08:07:12;;;;;;;5.2;3.9;;;;;;;16.03;49.1582;956.1586;;;;
2020/04/13 08:09:37;;;;;;;4.3;3.9;;;;;;;16.26;48.71875;956.187;;;;
2020/04/13 08:12:02;;;;;;;4.2;3.7;;;;;;;16.43;48.11816;956.1914;;;;
2020/04/13 08:14:29;;;;;;;5.1;3.8;;;;;;;16.51;48.32422;956.1074;;;;
2020/04/13 08:16:54;;;;;;;5.6;3.9;;;;;;;16.58;48.05273;956.1439;;;;
2020/04/13 08:19:20;;;;;;;4;3.4;;;;;;;16.74;47.5918;956.1206;;;;
2020/04/13 08:21:45;;;;;;;5.7;3.8;;;;;;;16.63;47.56836;956.1163;;;;
2020/04/13 08:24:11;;;;;;;5;4.4;;;;;;;16.71;47.72949;956.1226;;;;
2020/04/13 08:26:36;;;;;;;5.6;3.9;;;;;;;16.63;47.97754;956.0578;;;;
2020/04/13 08:29:02;;;;;;;5.4;3.9;;;;;;;16.8;47.91406;956.0553;;;;
2020/04/13 08:31:28;;;;;;;4.6;3.7;;;;;;;16.76;47.66406;956.0748;;;;
2020/04/13 08:33:54;;;;;;;4.6;3.9;;;;;;;17.01;47.62109;956.1024;;;;
2020/04/13 08:36:19;;;;;;;5.4;3.9;;;;;;;17.02;45.42676;956.1149;;;;
2020/04/13 08:38:45;;;;;;;5.5;3.6;;;;;;;17.19;45.04785;956.0844;;;;
2020/04/13 08:41:11;;;;;;;4.8;3.9;;;;;;;17.26;44.60938;956.1355;;;;
2020/04/13 08:43:36;;;;;;;4.1;3.6;;;;;;;17.16;44.07324;956.1442;;;;
2020/04/13 08:46:02;;;;;;;4.9;3.8;;;;;;;17.17;44.02734;956.1053;;;;
2020/04/13 08:48:27;;;;;;;6.1;3.5;;;;;;;17.19;44.01855;956.0919;;;;
2020/04/13 08:50:52;;;;;;;4.6;3.6;;;;;;;17.21;44.05469;956.0647;;;;
2020/04/13 08:53:17;;;;;;;5.2;3.9;;;;;;;17.32;44.11328;956.0814;;;;
2020/04/13 08:55:42;;;;;;;6.8;3.7;;;;;;;17.43;43.48047;956.1202;;;;
2020/04/13 08:58:07;;;;;;;5.1;3.7;;;;;;;17.56;43.42383;956.0823;;;;
2020/04/13 09:00:32;;;;;;;5.4;3.6;;;;;;;17.59;42.67871;956.1039;;;;
2020/04/13 09:02:57;;;;;;;5.6;3.7;;;;;;;17.55;43.2002;956.1326;;;;
2020/04/13 09:05:22;;;;;;;5.6;3.8;;;;;;;17.52;43.13965;956.006;;;;
2020/04/13 09:07:48;;;;;;;5.1;3.7;;;;;;;17.65;42.94141;956.0892;;;;
2020/04/13 09:10:13;;;;;;;4.1;3.6;;;;;;;17.71;43.06348;956.0709;;;;
2020/04/13 09:12:38;;;;;;;5.8;4.5;;;;;;;17.88;43.3623;956.0637;;;;
2020/04/13 09:15:03;;;;;;;5.2;3.7;;;;;;;17.75;43.13867;956.0737;;;;
2020/04/13 09:17:28;;;;;;;5.7;3.8;;;;;;;17.83;42.64355;956.1373;;;;
2020/04/13 09:19:53;;;;;;;5.8;3.9;;;;;;;17.74;43.06738;956.0765;;;;
2020/04/13 09:22:19;;;;;;;5.8;3.8;;;;;;;17.96;42.63184;956.1024;;;;
2020/04/13 09:24:45;;;;;;;6.1;3.8;;;;;;;17.89;43.2002;956.1149;;;;
2020/04/13 09:27:11;;;;;;;4.8;3.7;;;;;;;17.88;42.8584;956.1453;;;;
2020/04/13 09:29:36;;;;;;;4.8;3.5;;;;;;;17.83;42.94727;956.0984;;;;
2020/04/13 09:32:02;;;;;;;7.4;4.3;;;;;;;18.12;42.6709;956.0681;;;;
2020/04/13 09:34:27;;;;;;;9;6.1;;;;;;;18.13;43.58594;956.0783;;;;
2020/04/13 09:36:53;;;;;;;5.6;4;;;;;;;18.27;43.0957;956.1103;;;;
2020/04/13 09:39:19;;;;;;;5.2;3.6;;;;;;;18.28;42.25293;956.0609;;;;
2020/04/13 09:41:44;;;;;;;5.5;4.2;;;;;;;18.2;42.05859;956.0398;;;;
2020/04/13 09:44:12;;;;;;;5.1;3.9;;;;;;;18.09;42.69141;956.0647;;;;
2020/04/13 09:46:37;;;;;;;6;3.9;;;;;;;18.27;41.99512;956.0048;;;;
2020/04/13 09:49:02;;;;;;;5.5;4;;;;;;;18.29;42.33691;955.9615;;;;
2020/04/13 09:51:27;;;;;;;5.5;4.3;;;;;;;18.52;41.09277;955.9783;;;;
